Time;durP1;ratioP1;P1;durP2;ratioP2;P2;SDS_P1;SDS_P2;PMS_P1;PMS_P2;Temp;Humidity;BMP_temperature;BMP_pressure;BME280_temperature;BME280_humidity;BME280_pressure;Samples;Min_cycle;Max_cycle;Signal;HPM_P1;HPM_P2
2023/03/11 00:00:28;;;;;;;8.18;1.17;;;0.20;99.90;;;;;;5110067;27;20050;-87
2023/03/11 00:02:56;;;;;;;11.48;1.27;;;0.00;99.90;;;;;;5093647;28;20394;-82
2023/03/11 00:05:25;;;;;;;7.45;1.60;;;0.10;99.90;;;;;;5129768;27;20053;-92
2023/03/11 00:07:51;;;;;;;7.72;1.48;;;0.80;99.90;;;;;;5093251;28;20047;-82
2023/03/11 00:10:24;;;;;;;8.73;1.38;;;2.70;99.90;;;;;;5094152;27;20058;-85
2023/03/11 00:12:50;;;;;;;7.63;0.70;;;-0.10;99.90;;;;;;5113216;27;20255;-85
2023/03/11 00:15:16;;;;;;;10.20;1.10;;;1.50;99.90;;;;;;5094732;27;20406;-81
2023/03/11 00:17:42;;;;;;;10.32;1.60;;;0.20;99.90;;;;;;5120024;27;20039;-87
2023/03/11 00:20:23;;;;;;;9.02;0.80;;;0.00;99.90;;;;;;5091907;27;20547;-87
2023/03/11 00:22:51;;;;;;;8.15;1.13;;;0.20;99.90;;;;;;5123684;27;20130;-89
2023/03/11 00:25:19;;;;;;;5.72;0.82;;;0.00;99.90;;;;;;5111876;27;20096;-88
2023/03/11 00:27:45;;;;;;;9.18;0.90;;;2.00;99.90;;;;;;5119724;27;20098;-88
2023/03/11 00:30:12;;;;;;;4.32;1.95;;;1.20;99.90;;;;;;5119423;27;20542;-88
2023/03/11 00:32:38;;;;;;;4.18;0.60;;;0.20;99.90;;;;;;5123603;27;20043;-88
2023/03/11 00:35:04;;;;;;;7.32;1.15;;;0.10;99.90;;;;;;5095456;27;20043;-90
2023/03/11 00:37:30;;;;;;;4.18;0.57;;;0.20;99.90;;;;;;5093243;27;20043;-87
2023/03/11 00:39:56;;;;;;;4.18;0.70;;;0.10;99.90;;;;;;5092838;28;20051;-88
2023/03/11 00:42:22;;;;;;;8.65;0.70;;;1.90;99.90;;;;;;5094072;27;20047;-89
2023/03/11 00:44:47;;;;;;;4.22;1.00;;;0.00;99.90;;;;;;5113731;27;20445;-93
2023/03/11 00:47:13;;;;;;;2.65;0.77;;;1.60;99.90;;;;;;5122159;27;20541;-92
2023/03/11 00:49:39;;;;;;;47.03;26.33;;;0.10;99.90;;;;;;5109461;28;20616;-87
2023/03/11 00:52:04;;;;;;;10.30;2.92;;;1.00;99.90;;;;;;5119572;27;20040;-93
2023/03/11 00:54:30;;;;;;;6.30;1.65;;;0.20;99.90;;;;;;5093628;27;20050;-95
2023/03/11 00:56:56;;;;;;;6.40;1.80;;;0.10;99.90;;;;;;5119376;27;20074;-91
2023/03/11 00:59:21;;;;;;;4.78;0.70;;;0.10;99.90;;;;;;5111303;27;20450;-93
2023/03/11 01:01:47;;;;;;;6.20;0.55;;;0.10;99.90;;;;;;5096067;27;20047;-84
2023/03/11 01:04:13;;;;;;;2.05;0.30;;;0.90;99.90;;;;;;5095331;27;20124;-95
2023/03/11 01:06:38;;;;;;;2.53;0.50;;;0.00;99.90;;;;;;5120045;27;20035;-94
2023/03/11 01:09:04;;;;;;;7.07;1.27;;;0.00;99.90;;;;;;5126557;28;20083;-88
2023/03/11 01:11:30;;;;;;;6.95;0.60;;;-0.10;99.90;;;;;;5117309;27;20414;-92
2023/03/11 01:13:59;;;;;;;10.55;0.65;;;2.20;99.90;;;;;;5113858;27;20051;-95
2023/03/11 01:16:24;;;;;;;2.97;0.50;;;-0.20;99.90;;;;;;5110474;27;20110;-95
2023/03/11 01:18:50;;;;;;;7.13;0.60;;;-0.10;99.90;;;;;;5132080;27;20077;-93
2023/03/11 01:21:15;;;;;;;2.38;0.60;;;-0.10;99.90;;;;;;5124725;27;20403;-92
2023/03/11 01:23:42;;;;;;;7.05;1.23;;;;;;;;;;5123377;27;20107;-93
2023/03/11 01:26:07;;;;;;;2.55;1.08;;;0.00;99.90;;;;;;5095680;27;20091;-93
2023/03/11 01:28:33;;;;;;;4.90;0.50;;;-0.20;99.90;;;;;;5109539;28;20444;-93
2023/03/11 01:30:59;;;;;;;6.07;0.70;;;-0.10;99.90;;;;;;5108299;28;20032;-91
2023/03/11 01:33:25;;;;;;;2.58;0.40;;;-0.20;99.90;;;;;;5110636;27;20039;-95
2023/03/11 01:35:51;;;;;;;5.38;1.17;;;-0.10;99.90;;;;;;5095906;27;20409;-89
2023/03/11 01:38:16;;;;;;;5.63;0.88;;;0.00;99.90;;;;;;5111434;27;20494;-92
2023/03/11 01:40:48;;;;;;;5.57;0.50;;;0.00;99.90;;;;;;5112065;27;20047;-90
2023/03/11 01:43:38;;;;;;;2.15;0.73;;;-0.20;99.90;;;;;;5111519;27;20176;-92
2023/03/11 01:46:08;;;;;;;3.15;0.43;;;0.00;99.90;;;;;;5117745;27;20047;-89
2023/03/11 01:48:34;;;;;;;3.88;0.88;;;0.00;99.90;;;;;;5127208;27;20494;-90
2023/03/11 01:51:03;;;;;;;4.13;0.40;;;-0.10;99.90;;;;;;5091771;28;20043;-89
2023/03/11 01:53:29;;;;;;;6.43;0.40;;;0.00;99.90;;;;;;5121073;27;20042;-92
2023/03/11 01:55:55;;;;;;;2.35;0.30;;;-0.20;99.90;;;;;;5112257;27;20394;-93
2023/03/11 01:58:25;;;;;;;3.72;0.30;;;-0.20;99.90;;;;;;5119756;27;20512;-88
2023/03/11 02:00:52;;;;;;;8.07;0.50;;;-0.20;99.90;;;;;;5091489;28;20050;-93
2023/03/11 02:03:24;;;;;;;3.38;0.43;;;-0.10;99.90;;;;;;5092035;28;20051;-92
2023/03/11 02:05:52;;;;;;;3.00;0.38;;;-0.10;99.90;;;;;;5111867;28;20050;-93
2023/03/11 02:08:18;;;;;;;3.65;0.32;;;-0.10;99.90;;;;;;5111227;28;20043;-94
2023/03/11 02:10:45;;;;;;;3.47;0.55;;;1.50;99.90;;;;;;5108654;28;20058;-95
2023/03/11 02:13:11;;;;;;;3.40;0.43;;;-0.30;99.90;;;;;;5093624;28;20043;-93
2023/03/11 02:15:37;;;;;;;3.40;0.30;;;-0.30;99.90;;;;;;5095757;28;20084;-88
2023/03/11 02:18:05;;;;;;;4.20;0.40;;;1.90;99.90;;;;;;5112548;28;20075;-83
2023/03/11 02:20:48;;;;;;;7.20;0.50;;;-0.20;99.90;;;;;;5119238;28;20046;-95
2023/03/11 02:23:15;;;;;;;4.65;0.73;;;-0.20;99.90;;;;;;5126836;28;20579;-92
2023/03/11 02:26:06;;;;;;;3.92;0.50;;;-0.30;99.90;;;;;;5100538;28;20093;-92
2023/03/11 02:28:35;;;;;;;2.80;0.30;;;-0.20;99.90;;;;;;5110541;28;20164;-93
2023/03/11 02:31:01;;;;;;;3.25;0.40;;;1.10;99.90;;;;;;5112255;28;20546;-95
2023/03/11 02:33:31;;;;;;;3.92;1.20;;;-0.40;99.90;;;;;;5092459;28;20055;-93
2023/03/11 02:35:57;;;;;;;2.13;0.60;;;-0.30;99.90;;;;;;5091432;28;20047;-88
2023/03/11 02:38:23;;;;;;;4.57;0.45;;;-0.60;99.90;;;;;;5109479;28;20051;-92
2023/03/11 02:40:54;;;;;;;4.93;0.63;;;-0.30;99.90;;;;;;5108239;28;20071;-89
2023/03/11 02:43:26;;;;;;;2.05;0.73;;;-0.30;99.90;;;;;;5118527;28;20048;-94
2023/03/11 02:45:53;;;;;;;4.82;0.45;;;-0.50;99.90;;;;;;5125297;28;20048;-95
2023/03/11 02:48:20;;;;;;;5.28;0.50;;;1.70;99.90;;;;;;5090856;28;20158;-93
2023/03/11 02:50:46;;;;;;;3.35;0.55;;;-0.50;99.90;;;;;;5094826;28;20031;-94
2023/03/11 02:53:12;;;;;;;1.63;0.68;;;-0.50;99.90;;;;;;5111148;28;20420;-92
2023/03/11 02:55:38;;;;;;;1.88;0.50;;;-0.50;99.90;;;;;;5118201;28;20088;-93
2023/03/11 02:58:03;;;;;;;2.65;1.10;;;-0.50;99.90;;;;;;5107810;28;20048;-88
2023/03/11 03:00:29;;;;;;;6.70;1.30;;;-0.50;99.90;;;;;;5119698;28;20088;-93
2023/03/11 03:02:55;;;;;;;6.25;0.98;;;-0.70;99.90;;;;;;5121263;28;20039;-94
2023/03/11 03:05:21;;;;;;;2.75;0.55;;;-0.50;99.90;;;;;;5111142;28;20052;-89
2023/03/11 03:07:47;;;;;;;5.55;0.50;;;-0.80;99.90;;;;;;5108712;28;20063;-92
2023/03/11 03:10:15;;;;;;;4.22;0.50;;;-0.60;99.90;;;;;;5107519;28;20039;-94
2023/03/11 03:12:41;;;;;;;3.60;0.32;;;0.70;99.90;;;;;;5114422;27;20051;-91
2023/03/11 03:15:09;;;;;;;4.40;0.25;;;-0.10;99.90;;;;;;5111679;28;20050;-92
2023/03/11 03:17:35;;;;;;;1.88;0.38;;;-0.50;99.90;;;;;;5118118;27;20051;-94
2023/03/11 03:20:03;;;;;;;6.28;0.30;;;-0.60;99.90;;;;;;5129312;27;20047;-93
2023/03/11 03:22:29;;;;;;;1.63;0.38;;;-0.80;99.90;;;;;;5097372;27;20443;-94
2023/03/11 03:24:55;;;;;;;2.10;0.17;;;-0.60;99.90;;;;;;5111740;28;20116;-93
2023/03/11 03:27:20;;;;;;;1.70;0.30;;;-0.80;99.90;;;;;;5095494;27;20134;-95
2023/03/11 03:29:46;;;;;;;5.88;0.40;;;0.30;99.90;;;;;;5114993;27;20054;-94
2023/03/11 03:32:12;;;;;;;1.65;0.28;;;-0.60;99.90;;;;;;5115042;27;20426;-91
2023/03/11 03:34:37;;;;;;;4.90;0.40;;;-0.60;99.90;;;;;;5112407;27;20405;-90
2023/03/11 03:37:03;;;;;;;2.33;0.40;;;0.40;99.90;;;;;;5110738;28;20039;-91
2023/03/11 03:39:28;;;;;;;2.88;0.28;;;0.20;99.90;;;;;;5122303;27;20044;-92
2023/03/11 03:41:54;;;;;;;2.42;0.50;;;-0.60;99.90;;;;;;5111527;28;20040;-89
2023/03/11 03:44:20;;;;;;;4.30;0.47;;;-0.70;99.90;;;;;;5110902;28;20499;-92
2023/03/11 03:46:45;;;;;;;0.88;0.30;;;-0.70;99.90;;;;;;5124707;27;20092;-92
2023/03/11 03:49:11;;;;;;;1.35;0.30;;;-0.90;99.90;;;;;;5123890;27;20043;-94
2023/03/11 03:51:36;;;;;;;3.40;0.32;;;-0.80;99.90;;;;;;5111982;27;20039;-91
2023/03/11 03:54:02;;;;;;;1.40;0.30;;;-0.70;99.90;;;;;;5120644;27;20583;-82
2023/03/11 03:56:28;;;;;;;3.38;0.63;;;-0.70;99.90;;;;;;5122430;27;20036;-91
2023/03/11 03:58:53;;;;;;;4.78;0.70;;;-0.30;99.90;;;;;;5114031;28;20383;-87
2023/03/11 04:01:20;;;;;;;3.83;0.55;;;-0.80;99.90;;;;;;5113104;28;20039;-88
2023/03/11 04:03:46;;;;;;;2.60;0.60;;;1.10;99.90;;;;;;5114360;27;20038;-92
2023/03/11 04:06:23;;;;;;;3.40;0.50;;;-1.10;99.90;;;;;;5096155;27;20084;-87
2023/03/11 04:08:51;;;;;;;3.63;0.38;;;-1.50;99.90;;;;;;5102679;28;20032;-88
2023/03/11 04:11:17;;;;;;;2.50;0.45;;;-1.10;99.90;;;;;;5092786;28;20047;-91
2023/03/11 04:13:43;;;;;;;3.50;0.50;;;-1.10;99.90;;;;;;5110568;27;20063;-91
2023/03/11 04:16:14;;;;;;;2.05;0.52;;;-1.20;99.90;;;;;;5110243;28;20043;-87
2023/03/11 04:18:40;;;;;;;2.03;0.60;;;-1.60;99.90;;;;;;5114205;27;20039;-89
2023/03/11 04:21:06;;;;;;;4.22;0.57;;;0.30;99.90;;;;;;5123077;27;20054;-84
2023/03/11 04:23:32;;;;;;;6.10;0.60;;;-1.20;99.90;;;;;;5125730;27;20039;-87
2023/03/11 04:25:58;;;;;;;5.57;0.50;;;-1.50;99.90;;;;;;5118142;28;20088;-91
2023/03/11 04:28:24;;;;;;;5.55;0.80;;;;;;;;;;5110738;27;20039;-90
2023/03/11 04:30:49;;;;;;;3.03;1.10;;;-1.40;99.90;;;;;;5114211;27;20092;-89
2023/03/11 04:33:15;;;;;;;2.55;0.70;;;-1.50;99.90;;;;;;5113018;27;20519;-87
2023/03/11 04:35:40;;;;;;;2.53;0.30;;;-1.60;99.90;;;;;;5096974;27;20279;-92
2023/03/11 04:38:06;;;;;;;2.55;0.50;;;-1.50;99.90;;;;;;5112970;27;20039;-91
2023/03/11 04:40:32;;;;;;;3.03;0.40;;;0.80;99.90;;;;;;5113165;27;20043;-89
2023/03/11 04:42:57;;;;;;;4.70;0.90;;;-1.80;99.90;;;;;;5110544;28;20056;-86
2023/03/11 04:45:24;;;;;;;9.10;1.38;;;-1.90;99.90;;;;;;5113395;27;20570;-92
2023/03/11 04:47:50;;;;;;;2.92;0.60;;;-1.50;99.90;;;;;;5109948;28;20038;-95
2023/03/11 04:50:16;;;;;;;5.35;1.08;;;-1.40;99.90;;;;;;5096003;27;20054;-89
2023/03/11 04:52:42;;;;;;;5.03;1.00;;;0.60;99.90;;;;;;5123838;27;20064;-89
2023/03/11 04:55:09;;;;;;;3.92;0.65;;;0.80;99.90;;;;;;5095894;27;20174;-93
2023/03/11 04:57:34;;;;;;;8.23;0.40;;;-1.40;99.90;;;;;;5122287;27;20039;-90
2023/03/11 05:00:00;;;;;;;2.53;0.43;;;-1.50;99.90;;;;;;5093033;28;20547;-90
2023/03/11 05:02:26;;;;;;;2.25;0.30;;;0.60;99.90;;;;;;5109144;28;20036;-92
2023/03/11 05:04:51;;;;;;;3.03;0.52;;;-1.50;99.90;;;;;;5096402;27;20064;-89
2023/03/11 05:07:17;;;;;;;4.93;0.40;;;-1.60;99.90;;;;;;5092669;28;20142;-92
2023/03/11 05:09:43;;;;;;;4.43;0.95;;;-1.50;99.90;;;;;;5113974;27;20086;-92
2023/03/11 05:12:11;;;;;;;6.78;0.50;;;-1.60;99.90;;;;;;5095856;27;20111;-89
2023/03/11 05:14:37;;;;;;;5.35;0.40;;;-2.60;99.90;;;;;;5123045;27;20047;-92
2023/03/11 05:17:03;;;;;;;2.65;0.35;;;-1.50;99.90;;;;;;5112391;27;20497;-87
2023/03/11 05:19:33;;;;;;;4.85;0.47;;;-2.10;99.90;;;;;;5112621;27;20047;-91
2023/03/11 05:22:01;;;;;;;1.15;0.50;;;-1.70;99.90;;;;;;5096400;27;20050;-87
2023/03/11 05:24:27;;;;;;;2.28;0.43;;;-2.60;99.90;;;;;;5096319;27;20067;-92
2023/03/11 05:26:56;;;;;;;1.23;0.30;;;-1.80;99.90;;;;;;5113881;27;20046;-93
2023/03/11 05:29:23;;;;;;;2.72;0.60;;;-1.80;99.90;;;;;;5124460;27;20039;-90
2023/03/11 05:31:48;;;;;;;4.72;0.77;;;-1.70;99.90;;;;;;5097388;28;20149;-93
2023/03/11 05:34:15;;;;;;;0.90;0.50;;;-1.90;99.90;;;;;;5120442;28;20091;-93
2023/03/11 05:36:40;;;;;;;2.33;0.50;;;-1.90;99.90;;;;;;5124391;27;20031;-89
2023/03/11 05:39:06;;;;;;;1.80;0.20;;;-1.70;99.90;;;;;;5117651;27;20047;-87
2023/03/11 05:41:32;;;;;;;4.45;0.45;;;-1.90;99.90;;;;;;5114654;27;20042;-90
2023/03/11 05:43:58;;;;;;;7.18;0.57;;;-1.80;99.90;;;;;;5112296;27;20046;-89
2023/03/11 05:46:24;;;;;;;1.58;0.30;;;-1.20;99.90;;;;;;5114294;27;20040;-90
2023/03/11 05:48:50;;;;;;;7.63;1.00;;;-2.50;99.90;;;;;;5121586;27;20043;-90
2023/03/11 05:51:15;;;;;;;3.90;0.50;;;-2.30;99.90;;;;;;5094526;28;20351;-91
2023/03/11 05:53:47;;;;;;;6.80;1.02;;;-2.00;99.90;;;;;;5110720;28;20082;-88
2023/03/11 05:56:14;;;;;;;2.63;0.30;;;-1.90;99.90;;;;;;5108502;28;20135;-92
2023/03/11 05:58:40;;;;;;;2.72;0.68;;;-0.20;99.90;;;;;;5119574;27;20062;-87
2023/03/11 06:01:10;;;;;;;5.65;0.50;;;-1.90;99.90;;;;;;5094857;28;20543;-91
2023/03/11 06:03:37;;;;;;;3.88;0.43;;;-1.80;99.90;;;;;;5111212;28;20128;-87
2023/03/11 06:06:07;;;;;;;6.30;0.52;;;-1.80;99.90;;;;;;5117737;28;20043;-85
2023/03/11 06:08:35;;;;;;;3.13;0.43;;;-3.20;99.90;;;;;;5109399;28;20083;-83
2023/03/11 06:11:07;;;;;;;5.78;0.60;;;-1.90;99.90;;;;;;5094922;28;20047;-90
2023/03/11 06:13:33;;;;;;;2.92;0.32;;;-2.10;99.90;;;;;;5111193;28;20043;-89
2023/03/11 06:15:59;;;;;;;1.88;0.25;;;-1.80;99.90;;;;;;5092484;28;20085;-87
2023/03/11 06:18:25;;;;;;;4.00;0.50;;;-0.70;99.90;;;;;;5123987;28;20031;-86
2023/03/11 06:20:51;;;;;;;2.08;0.50;;;-1.90;99.90;;;;;;5131924;28;20040;-81
2023/03/11 06:23:17;;;;;;;3.55;0.50;;;-2.10;99.90;;;;;;5110003;28;20242;-83
2023/03/11 06:25:43;;;;;;;2.65;0.63;;;0.30;99.90;;;;;;5093175;28;20031;-89
2023/03/11 06:28:09;;;;;;;2.92;0.35;;;-1.60;99.90;;;;;;5091208;28;20093;-88
2023/03/11 06:30:38;;;;;;;3.10;0.50;;;-3.50;99.90;;;;;;5109854;28;20130;-90
2023/03/11 06:33:03;;;;;;;7.22;0.63;;;-0.30;99.90;;;;;;5094020;28;20180;-84
2023/03/11 06:35:29;;;;;;;4.85;0.68;;;-2.00;99.90;;;;;;5122813;28;20031;-83
2023/03/11 06:37:55;;;;;;;2.08;0.43;;;-2.10;99.90;;;;;;5115665;28;20039;-85
2023/03/11 06:40:20;;;;;;;2.78;0.90;;;-1.30;99.90;;;;;;5110229;28;20452;-86
2023/03/11 06:42:46;;;;;;;5.45;0.40;;;-2.00;99.90;;;;;;5120925;28;20127;-88
2023/03/11 06:45:12;;;;;;;5.63;0.60;;;-2.00;99.90;;;;;;5115143;27;20051;-93
2023/03/11 06:47:39;;;;;;;7.22;0.65;;;-2.10;99.90;;;;;;5115737;27;20039;-90
2023/03/11 06:50:07;;;;;;;2.33;0.93;;;-2.30;99.90;;;;;;5114653;28;20035;-87
2023/03/11 06:52:34;;;;;;;3.13;1.02;;;-2.10;99.90;;;;;;5113984;28;20130;-87
2023/03/11 06:55:00;;;;;;;7.05;1.33;;;-2.10;99.90;;;;;;5115727;27;20442;-87
2023/03/11 06:57:26;;;;;;;8.45;1.05;;;-2.30;99.90;;;;;;5113324;28;20070;-85
2023/03/11 06:59:52;;;;;;;7.32;1.08;;;-0.30;99.90;;;;;;5115119;27;20054;-91
2023/03/11 07:02:18;;;;;;;1.92;0.85;;;-0.30;99.90;;;;;;5125969;27;20035;-92
2023/03/11 07:04:43;;;;;;;5.93;1.00;;;-2.20;99.90;;;;;;5115105;27;20133;-89
2023/03/11 07:07:09;;;;;;;7.40;1.20;;;-0.30;99.90;;;;;;5095458;28;20525;-89
2023/03/11 07:09:34;;;;;;;1.00;0.65;;;-1.20;99.90;;;;;;5113382;28;20042;-94
2023/03/11 07:12:00;;;;;;;4.88;0.93;;;0.70;99.90;;;;;;5096414;28;20039;-90
2023/03/11 07:14:26;;;;;;;5.30;1.10;;;-2.00;99.90;;;;;;5123787;27;20575;-95
2023/03/11 07:16:51;;;;;;;8.95;1.23;;;0.60;99.90;;;;;;5114684;27;20054;-89
2023/03/11 07:19:17;;;;;;;7.22;1.50;;;0.60;99.90;;;;;;5116756;28;20035;-91
2023/03/11 07:21:43;;;;;;;3.63;0.80;;;-2.10;99.90;;;;;;5108345;27;20039;-85
2023/03/11 07:24:13;;;;;;;4.60;0.90;;;-2.10;99.90;;;;;;5124596;28;20107;-86
2023/03/11 07:26:39;;;;;;;2.38;0.75;;;-1.90;99.90;;;;;;5106113;27;20534;-92
2023/03/11 07:29:04;;;;;;;2.20;0.80;;;0.50;99.90;;;;;;5101948;27;20078;-90
2023/03/11 07:31:32;;;;;;;5.10;1.13;;;-1.30;99.90;;;;;;5116945;27;20066;-94
2023/03/11 07:34:01;;;;;;;4.45;0.77;;;-0.90;99.90;;;;;;5115921;27;20118;-92
2023/03/11 07:36:27;;;;;;;7.53;0.85;;;-1.80;99.90;;;;;;5127330;27;20034;-88
2023/03/11 07:38:58;;;;;;;2.72;0.73;;;0.30;99.90;;;;;;5113451;27;20111;-86
2023/03/11 07:41:25;;;;;;;5.28;1.30;;;0.20;99.90;;;;;;5127124;27;20036;-93
2023/03/11 07:43:56;;;;;;;3.70;0.50;;;1.30;99.90;;;;;;5126414;27;20036;-90
2023/03/11 07:46:28;;;;;;;4.63;0.90;;;0.10;99.90;;;;;;5123324;27;20031;-84
2023/03/11 07:48:54;;;;;;;3.92;0.90;;;-2.50;99.90;;;;;;5096919;27;20055;-85
2023/03/11 07:51:25;;;;;;;5.90;0.50;;;-1.90;99.90;;;;;;5095136;28;20040;-91
2023/03/11 07:53:52;;;;;;;2.25;1.00;;;-0.70;99.90;;;;;;5099394;28;20127;-87
2023/03/11 07:56:19;;;;;;;5.00;0.80;;;-0.10;99.90;;;;;;5119154;28;20047;-85
2023/03/11 07:58:45;;;;;;;6.05;0.90;;;0.00;99.90;;;;;;5140715;27;20047;-89
2023/03/11 08:01:16;;;;;;;4.43;1.42;;;-1.60;99.90;;;;;;5101610;27;20043;-89
2023/03/11 08:03:44;;;;;;;3.90;0.93;;;1.30;99.90;;;;;;5113372;27;20050;-91
2023/03/11 08:06:22;;;;;;;6.18;0.88;;;-2.20;99.90;;;;;;5120688;27;20086;-89
2023/03/11 08:08:48;;;;;;;6.22;1.20;;;-1.50;99.90;;;;;;5113951;27;20091;-91
2023/03/11 08:11:15;;;;;;;2.53;1.95;;;0.70;99.90;;;;;;5115294;27;20047;-87
2023/03/11 08:13:42;;;;;;;2.55;0.80;;;1.50;99.90;;;;;;5098349;27;20039;-93
2023/03/11 08:16:11;;;;;;;3.47;0.98;;;-1.40;99.90;;;;;;5121499;27;20423;-85
2023/03/11 08:18:37;;;;;;;7.57;2.13;;;0.90;99.90;;;;;;5095951;28;20506;-88
2023/03/11 08:21:14;;;;;;;6.10;2.55;;;-0.50;99.90;;;;;;5094382;28;20035;-86
2023/03/11 08:23:39;;;;;;;7.10;1.75;;;-1.00;99.90;;;;;;5121356;27;20555;-88
2023/03/11 08:26:11;;;;;;;3.88;1.17;;;0.40;99.90;;;;;;5114351;27;20118;-87
2023/03/11 08:28:37;;;;;;;6.30;1.30;;;0.70;99.90;;;;;;5099382;27;20078;-91
2023/03/11 08:31:21;;;;;;;14.52;1.63;;;-1.30;99.90;;;;;;5126586;27;20035;-84
2023/03/11 08:33:51;;;;;;;9.38;1.38;;;-2.60;99.90;;;;;;5095581;27;20032;-92
2023/03/11 08:36:17;;;;;;;4.25;0.98;;;0.90;99.90;;;;;;5098123;27;20031;-88
2023/03/11 08:38:43;;;;;;;5.20;1.30;;;1.30;99.90;;;;;;5125090;27;20043;-88
2023/03/11 08:41:08;;;;;;;2.80;0.98;;;-1.00;99.90;;;;;;5112365;28;20043;-90
2023/03/11 08:43:34;;;;;;;9.35;1.00;;;1.20;99.90;;;;;;5099024;28;20039;-87
2023/03/11 08:46:01;;;;;;;6.40;1.40;;;-1.30;99.90;;;;;;5120024;27;20509;-90
2023/03/11 08:48:27;;;;;;;5.50;0.90;;;-0.20;99.90;;;;;;5116759;28;20043;-89
2023/03/11 08:50:53;;;;;;;5.57;0.80;;;2.40;99.90;;;;;;5097376;27;20344;-80
2023/03/11 08:53:18;;;;;;;5.97;1.25;;;-1.10;99.90;;;;;;5118191;27;20039;-88
2023/03/11 08:55:44;;;;;;;5.97;0.93;;;1.50;99.90;;;;;;5116586;27;20074;-89
2023/03/11 08:58:10;;;;;;;6.28;1.17;;;2.10;99.90;;;;;;5114170;27;20043;-90
2023/03/11 09:00:36;;;;;;;6.60;1.75;;;-0.80;99.90;;;;;;5125066;27;20039;-88
2023/03/11 09:03:01;;;;;;;3.28;0.90;;;0.20;99.90;;;;;;5126575;27;20069;-91
2023/03/11 09:05:27;;;;;;;1.95;0.98;;;-0.30;99.90;;;;;;5097254;27;20043;-90
2023/03/11 09:07:53;;;;;;;4.65;1.40;;;;;;;;;;5096289;28;20023;-85
2023/03/11 09:10:19;;;;;;;6.50;2.17;;;-0.10;99.90;;;;;;5114513;27;20319;-93
2023/03/11 09:12:45;;;;;;;14.93;4.57;;;0.00;99.90;;;;;;5092556;28;20491;-85
2023/03/11 09:15:10;;;;;;;2.83;1.02;;;-0.10;99.90;;;;;;5112522;27;20062;-86
2023/03/11 09:17:36;;;;;;;7.95;1.77;;;0.00;99.90;;;;;;5109989;28;20039;-92
2023/03/11 09:20:03;;;;;;;10.35;0.98;;;-0.50;99.90;;;;;;5110421;27;20145;-89
2023/03/11 09:22:28;;;;;;;1.98;0.93;;;0.20;99.90;;;;;;5122845;27;20355;-92
2023/03/11 09:24:56;;;;;;;2.60;0.80;;;0.20;99.90;;;;;;5111942;27;20134;-86
2023/03/11 09:27:22;;;;;;;6.95;1.42;;;0.10;99.90;;;;;;5094813;27;20426;-92
2023/03/11 09:29:48;;;;;;;4.25;0.80;;;0.40;99.90;;;;;;5095312;27;20062;-88
2023/03/11 09:32:14;;;;;;;2.45;1.10;;;0.40;99.90;;;;;;5095111;27;20085;-87
2023/03/11 09:34:41;;;;;;;15.50;1.25;;;0.50;99.90;;;;;;5112148;27;20134;-89
2023/03/11 09:37:07;;;;;;;9.02;2.67;;;0.50;99.90;;;;;;5092459;27;20070;-86
2023/03/11 09:39:33;;;;;;;2.90;0.80;;;0.60;99.90;;;;;;5091641;28;20043;-90
2023/03/11 09:42:15;;;;;;;9.27;3.22;;;2.50;99.90;;;;;;5109664;27;20046;-90
2023/03/11 09:45:01;;;;;;;3.38;0.57;;;0.80;99.90;;;;;;5094959;27;20035;-93
2023/03/11 09:47:29;;;;;;;21.45;1.15;;;0.90;99.90;;;;;;5089355;27;20059;-76
2023/03/11 09:50:39;;;;;;;6.65;0.95;;;1.00;99.90;;;;;;5109609;28;20035;-90
2023/03/11 09:53:36;;;;;;;5.38;0.90;;;1.10;99.90;;;;;;5078279;27;20047;-85
2023/03/11 09:56:06;;;;;;;6.00;1.05;;;1.10;99.90;;;;;;5093280;27;20494;-84
2023/03/11 09:58:46;;;;;;;4.28;0.70;;;1.20;99.90;;;;;;5119296;27;20064;-84
2023/03/11 10:01:22;;;;;;;10.18;1.80;;;1.30;99.90;;;;;;5091699;28;20054;-85
2023/03/11 10:03:49;;;;;;;9.98;1.00;;;1.20;99.90;;;;;;5105599;28;20487;-85
2023/03/11 10:06:25;;;;;;;3.40;0.90;;;1.20;99.90;;;;;;5129034;27;20031;-86
2023/03/11 10:09:19;;;;;;;3.60;0.63;;;2.20;99.90;;;;;;5089575;28;20321;-87
2023/03/11 10:33:02;;;;;;;5.35;1.67;;;0.10;99.90;;;;;;5087818;28;20059;-81
2023/03/11 10:36:57;;;;;;;5.38;0.60;;;1.90;99.90;;;;;;5082727;28;20380;-81
2023/03/11 10:44:42;;;;;;;14.10;3.90;;;2.10;99.90;;;;;;5080349;28;20039;-83
2023/03/11 10:48:17;;;;;;;6.15;1.13;;;2.20;99.90;;;;;;5083275;28;20152;-83
2023/03/11 10:51:03;;;;;;;3.58;0.50;;;2.10;99.90;;;;;;5066791;28;20662;-83
2023/03/11 10:53:29;;;;;;;;;;;2.20;99.90;;;;;;5049620;28;20037;-81
2023/03/11 10:55:57;;;;;;;6.68;1.02;;;3.00;99.90;;;;;;5073251;28;19926;-82
2023/03/11 10:58:26;;;;;;;2.38;0.60;;;3.60;99.90;;;;;;5078062;28;20479;-81
2023/03/11 11:01:06;;;;;;;5.00;0.63;;;2.40;99.90;;;;;;5078956;28;20036;-84
2023/03/11 11:03:33;;;;;;;2.85;1.20;;;2.50;99.90;;;;;;5077253;28;20044;-83
2023/03/11 11:06:06;;;;;;;8.20;1.00;;;3.00;99.90;;;;;;5063975;28;20051;-84
2023/03/11 11:08:32;;;;;;;4.93;1.20;;;2.60;99.90;;;;;;5061473;28;20484;-82
2023/03/11 11:11:03;;;;;;;4.43;0.63;;;2.20;99.90;;;;;;5080247;28;20072;-83
2023/03/11 11:13:33;;;;;;;2.17;0.73;;;4.40;99.90;;;;;;5093139;28;20050;-84
2023/03/11 11:16:15;;;;;;;4.15;1.17;;;2.70;99.90;;;;;;5084735;28;20042;-84
2023/03/11 11:18:47;;;;;;;5.78;1.60;;;3.20;99.90;;;;;;4730288;28;10000466;-89
2023/03/11 11:21:38;;;;;;;6.43;1.40;;;2.50;99.90;;;;;;5087544;28;20226;-86
2023/03/11 11:24:28;;;;;;;4.82;1.45;;;3.00;99.90;;;;;;5109368;28;20168;-83
2023/03/11 11:27:18;;;;;;;7.68;2.30;;;3.10;99.90;;;;;;5087129;28;20043;-83
2023/03/11 11:30:04;;;;;;;5.20;1.25;;;3.20;99.90;;;;;;5087528;28;20044;-86
2023/03/11 11:32:30;;;;;;;4.07;1.05;;;3.40;99.90;;;;;;5083107;28;20047;-87
2023/03/11 11:34:56;;;;;;;2.42;0.93;;;3.20;99.90;;;;;;5081712;28;20032;-86
2023/03/11 11:37:25;;;;;;;9.77;1.10;;;3.20;99.90;;;;;;5097328;28;20032;-85
2023/03/11 11:40:08;;;;;;;4.28;1.08;;;3.40;99.90;;;;;;5086147;28;20051;-85
2023/03/11 11:42:35;;;;;;;9.23;1.52;;;3.60;99.90;;;;;;5107145;28;20051;-86
2023/03/11 11:45:14;;;;;;;3.85;0.90;;;2.20;99.90;;;;;;5099608;28;20040;-86
2023/03/11 11:47:45;;;;;;;1.85;0.40;;;3.80;99.90;;;;;;5095430;28;20141;-84
2023/03/11 11:50:40;;;;;;;2.40;1.20;;;3.80;99.90;;;;;;5103760;28;20062;-84
2023/03/11 11:53:13;;;;;;;;;;;3.90;99.90;;;;;;5082498;28;20052;-82
2023/03/11 11:55:47;;;;;;;3.85;0.73;;;4.00;99.90;;;;;;5085655;28;20053;-84
2023/03/11 11:58:13;;;;;;;5.00;0.90;;;4.50;99.90;;;;;;5105267;28;20066;-81
2023/03/11 12:00:42;;;;;;;3.22;0.63;;;2.90;99.90;;;;;;5102029;28;20089;-81
2023/03/11 12:03:24;;;;;;;3.80;1.00;;;4.10;99.90;;;;;;5086704;28;20035;-81
2023/03/11 12:06:04;;;;;;;2.00;0.75;;;6.30;99.90;;;;;;5099222;28;20119;-81
2023/03/11 12:08:45;;;;;;;3.63;0.80;;;4.10;99.90;;;;;;5104938;28;20042;-81
2023/03/11 12:11:20;;;;;;;8.57;1.60;;;4.40;99.90;;;;;;5099272;28;20044;-80
2023/03/11 12:14:10;;;;;;;3.22;0.95;;;4.50;99.90;;;;;;5110391;27;20343;-81
2023/03/11 12:16:57;;;;;;;5.18;0.60;;;4.60;99.90;;;;;;5091936;28;20044;-80
2023/03/11 12:19:34;;;;;;;4.05;0.73;;;4.60;99.90;;;;;;5102628;27;20375;-80
2023/03/11 12:22:37;;;;;;;3.28;0.95;;;4.40;99.90;;;;;;5112151;27;20042;-81
2023/03/11 12:25:21;;;;;;;6.75;1.15;;;4.70;99.90;;;;;;5119483;27;20494;-81
2023/03/11 12:28:31;;;;;;;1.77;0.60;;;4.70;99.90;;;;;;5122494;27;20098;-81
2023/03/11 12:31:00;;;;;;;1.15;0.28;;;4.80;99.90;;;;;;5107311;27;20052;-80
2023/03/11 12:33:36;;;;;;;6.10;0.52;;;5.60;99.90;;;;;;5101243;28;20515;-82
2023/03/11 12:36:04;;;;;;;4.03;0.30;;;5.40;99.90;;;;;;5092285;27;20047;-82
2023/03/11 12:38:37;;;;;;;2.90;0.95;;;4.70;99.90;;;;;;5108111;28;20093;-83
2023/03/11 12:41:05;;;;;;;4.30;0.43;;;4.80;99.90;;;;;;5119242;27;20528;-84
2023/03/11 12:43:32;;;;;;;4.07;0.63;;;4.70;99.90;;;;;;5111916;27;20805;-82
2023/03/11 12:46:06;;;;;;;1.73;0.40;;;5.30;99.90;;;;;;5121885;27;20138;-83
2023/03/11 12:48:48;;;;;;;5.60;0.47;;;4.80;99.90;;;;;;5087578;27;20061;-82
2023/03/11 12:52:00;;;;;;;2.45;0.50;;;4.80;99.90;;;;;;5093076;27;20051;-82
2023/03/11 12:54:40;;;;;;;4.22;0.32;;;4.80;99.90;;;;;;5121195;27;20055;-83
2023/03/11 12:57:17;;;;;;;2.55;0.43;;;4.90;99.90;;;;;;5128578;27;20050;-84
2023/03/11 12:59:52;;;;;;;5.57;0.65;;;6.90;99.90;;;;;;5111391;27;20043;-83
2023/03/11 13:02:42;;;;;;;2.45;0.30;;;5.10;99.90;;;;;;5109120;27;20478;-83
2023/03/11 13:05:32;;;;;;;3.85;0.30;;;5.30;99.90;;;;;;5091524;27;20047;-83
2023/03/11 13:08:16;;;;;;;0.70;0.20;;;5.40;99.90;;;;;;5094335;27;20452;-83
2023/03/11 13:10:46;;;;;;;0.50;0.10;;;5.40;99.90;;;;;;5123607;27;20049;-83
2023/03/11 13:13:24;;;;;;;2.55;0.30;;;5.50;99.90;;;;;;5108990;27;20039;-83
2023/03/11 13:15:53;;;;;;;6.35;1.45;;;5.50;99.90;;;;;;5121642;27;20498;-84
2023/03/11 13:18:29;;;;;;;2.53;0.43;;;7.20;99.90;;;;;;5108278;27;20035;-84
2023/03/11 13:20:59;;;;;;;3.22;0.52;;;7.00;99.90;;;;;;5090830;28;20047;-83
2023/03/11 13:23:35;;;;;;;5.72;0.38;;;5.80;99.90;;;;;;5082601;28;20403;-83
2023/03/11 13:26:19;;;;;;;2.95;0.30;;;5.70;99.90;;;;;;5106984;27;20126;-84
2023/03/11 13:29:29;;;;;;;5.65;0.98;;;5.80;99.90;;;;;;5123179;27;20088;-84
2023/03/11 13:32:20;;;;;;;2.95;0.52;;;5.80;99.90;;;;;;5109774;27;20575;-83
2023/03/11 13:35:01;;;;;;;6.85;0.63;;;5.80;99.90;;;;;;5117236;27;20092;-82